createdAt,value
2023-04-06T00:01:53.362Z,18.53
2023-04-06T00:04:21.306Z,26.93
2023-04-06T00:06:48.605Z,26.27
2023-04-06T00:09:15.942Z,25.97
2023-04-06T00:11:43.563Z,21.07
2023-04-06T00:14:11.037Z,24.67
2023-04-06T00:16:38.400Z,43.73
2023-04-06T00:19:06.235Z,38.30
2023-04-06T00:21:33.983Z,31.47
2023-04-06T00:24:01.333Z,25.63
2023-04-06T00:26:30.164Z,19.12
2023-04-06T00:28:59.898Z,25.33
2023-04-06T00:31:27.229Z,25.65
2023-04-06T00:33:54.984Z,21.80
2023-04-06T00:36:22.440Z,16.90
2023-04-06T00:38:49.859Z,18.70
2023-04-06T00:41:18.900Z,16.73
2023-04-06T00:43:46.174Z,16.37
2023-04-06T00:46:13.576Z,17.10
2023-04-06T00:48:42.115Z,17.57
2023-04-06T00:51:09.491Z,17.17
2023-04-06T00:53:36.930Z,15.20
2023-04-06T00:56:05.693Z,12.67
2023-04-06T00:58:34.521Z,15.90
2023-04-06T01:01:02.364Z,15.73
2023-04-06T01:03:30.119Z,16.90
2023-04-06T01:05:59.434Z,18.37
2023-04-06T01:08:28.229Z,15.23
2023-04-06T01:10:56.309Z,16.27
2023-04-06T01:13:23.856Z,18.30
2023-04-06T01:15:51.928Z,15.77
2023-04-06T01:18:27.413Z,16.27
2023-04-06T01:20:56.285Z,14.60
2023-04-06T01:23:26.039Z,15.13
2023-04-06T01:25:53.425Z,13.63
2023-04-06T01:28:20.755Z,17.93
2023-04-06T01:30:49.372Z,14.90
2023-04-06T01:33:16.975Z,15.90
2023-04-06T01:35:44.855Z,13.63
2023-04-06T01:38:13.512Z,11.27
2023-04-06T01:40:41.209Z,15.83
2023-04-06T01:43:08.585Z,14.13
2023-04-06T01:45:36.813Z,13.83
2023-04-06T01:48:04.872Z,11.47
2023-04-06T01:50:32.572Z,18.20
2023-04-06T01:53:00.332Z,18.07
2023-04-06T01:55:28.233Z,14.87
2023-04-06T01:57:56.459Z,15.80
2023-04-06T02:00:27.339Z,18.80
2023-04-06T02:02:56.015Z,20.55
2023-04-06T02:05:23.708Z,17.93
2023-04-06T02:07:52.674Z,16.93
2023-04-06T02:10:22.004Z,16.50
2023-04-06T02:12:49.807Z,14.57
2023-04-06T02:15:18.487Z,21.00
2023-04-06T02:17:46.166Z,12.40
2023-04-06T02:20:13.726Z,16.40
2023-04-06T02:22:41.517Z,17.60
2023-04-06T02:25:09.828Z,16.07
2023-04-06T02:27:37.461Z,14.30
2023-04-06T02:30:06.551Z,11.38
2023-04-06T02:32:34.057Z,15.40
2023-04-06T02:35:02.030Z,13.87
2023-04-06T02:37:30.589Z,22.30
2023-04-06T02:42:27.897Z,14.43
2023-04-06T02:44:55.806Z,17.83
2023-04-06T02:47:24.398Z,17.00
2023-04-06T02:49:52.092Z,17.97
2023-04-06T02:52:20.362Z,14.85
2023-04-06T02:54:47.954Z,14.87
2023-04-06T02:57:20.074Z,18.17
2023-04-06T02:59:47.990Z,13.50
2023-04-06T03:02:15.811Z,18.83
2023-04-06T03:04:44.264Z,16.37
2023-04-06T03:07:15.155Z,16.97
2023-04-06T03:09:42.657Z,17.00
2023-04-06T03:12:10.434Z,17.53
2023-04-06T03:14:39.675Z,19.97
2023-04-06T03:17:07.107Z,16.53
2023-04-06T03:19:34.717Z,20.13
2023-04-06T03:22:02.775Z,22.43
2023-04-06T03:24:30.346Z,22.07
2023-04-06T03:26:57.832Z,21.47
2023-04-06T03:29:25.813Z,18.97
2023-04-06T03:31:53.516Z,20.37
2023-04-06T03:34:22.198Z,21.95
2023-04-06T03:36:59.831Z,18.20
2023-04-06T03:39:37.410Z,15.17
2023-04-06T03:42:05.525Z,20.13
2023-04-06T03:44:33.144Z,21.00
2023-04-06T03:47:00.699Z,22.50
2023-04-06T03:49:28.957Z,24.10
2023-04-06T03:51:57.786Z,24.33
2023-04-06T03:54:25.202Z,23.48
2023-04-06T03:56:52.923Z,20.00
2023-04-06T03:59:20.744Z,23.37
2023-04-06T04:01:48.214Z,26.60
2023-04-06T04:04:16.064Z,31.57
2023-04-06T04:06:43.464Z,28.27
2023-04-06T04:09:11.179Z,27.83
2023-04-06T04:11:39.088Z,20.07
2023-04-06T04:14:06.479Z,20.03
2023-04-06T04:16:33.954Z,29.43
2023-04-06T04:19:01.674Z,34.33
2023-04-06T04:21:32.599Z,30.03
2023-04-06T04:24:01.547Z,30.97
2023-04-06T04:26:29.396Z,30.73
2023-04-06T04:28:56.867Z,21.10
2023-04-06T04:31:24.568Z,21.67
2023-04-06T04:36:25.598Z,21.53
2023-04-06T04:38:54.035Z,19.57
2023-04-06T04:41:21.839Z,18.23
2023-04-06T04:43:50.405Z,19.67
2023-04-06T04:46:21.288Z,19.00
2023-04-06T04:48:48.858Z,38.27
2023-04-06T04:51:16.802Z,25.33
2023-04-06T04:53:45.923Z,16.98
2023-04-06T04:56:15.247Z,21.67
2023-04-06T04:58:44.617Z,11.83
2023-04-06T05:01:12.865Z,17.60
2023-04-06T05:03:40.878Z,18.07
2023-04-06T05:06:09.686Z,16.77
2023-04-06T05:08:39.790Z,15.07
2023-04-06T05:11:07.576Z,21.23
2023-04-06T05:13:35.805Z,17.13
2023-04-06T05:16:06.931Z,25.33
2023-04-06T05:18:34.911Z,22.93
2023-04-06T05:21:02.785Z,14.47
2023-04-06T05:23:31.755Z,18.08
2023-04-06T05:26:01.824Z,16.27
2023-04-06T05:28:29.353Z,16.07
2023-04-06T05:30:58.130Z,26.83
2023-04-06T05:33:27.438Z,11.02
2023-04-06T05:35:55.648Z,13.53
2023-04-06T05:38:23.810Z,19.63
2023-04-06T05:40:52.236Z,18.30
2023-04-06T05:43:23.057Z,18.55
2023-04-06T05:45:52.987Z,17.00
2023-04-06T05:48:21.285Z,20.33
2023-04-06T05:50:51.540Z,14.00
2023-04-06T05:53:22.292Z,16.23
2023-04-06T05:55:51.042Z,9.40
2023-04-06T05:58:18.571Z,10.20
2023-04-06T06:00:47.220Z,21.60
2023-04-06T06:03:16.532Z,30.77
2023-04-06T06:05:46.831Z,25.57
2023-04-06T06:08:14.984Z,16.17
2023-04-06T06:10:42.490Z,17.40
2023-04-06T06:13:11.341Z,17.07
2023-04-06T06:15:39.321Z,20.12
2023-04-06T06:18:07.031Z,21.03
2023-04-06T06:20:34.550Z,16.87
2023-04-06T06:23:02.485Z,18.63
2023-04-06T06:25:32.104Z,14.57
2023-04-06T06:28:00.263Z,16.00
2023-04-06T06:30:29.871Z,13.50
2023-04-06T06:32:57.490Z,11.20
2023-04-06T06:35:25.337Z,10.77
2023-04-06T06:37:53.178Z,16.30
2023-04-06T06:40:25.123Z,15.17
2023-04-06T06:42:53.782Z,17.33
2023-04-06T06:45:21.854Z,13.63
2023-04-06T06:47:49.338Z,12.03
2023-04-06T06:50:17.163Z,14.07
2023-04-06T06:52:45.971Z,14.15
2023-04-06T06:55:13.425Z,18.63
2023-04-06T06:57:43.565Z,12.77
2023-04-06T07:00:13.539Z,12.10
2023-04-06T07:02:42.260Z,16.80
2023-04-06T07:05:19.917Z,9.70
2023-04-06T07:07:55.965Z,13.10
2023-04-06T07:10:23.854Z,12.93
2023-04-06T07:12:51.305Z,14.10
2023-04-06T07:15:19.055Z,12.50
2023-04-06T07:17:46.802Z,12.40
2023-04-06T07:20:14.850Z,14.07
2023-04-06T07:22:44.660Z,15.02
2023-04-06T07:27:41.885Z,12.33
2023-04-06T07:30:10.533Z,12.87
2023-04-06T07:32:38.234Z,15.30
2023-04-06T07:35:06.221Z,15.07
2023-04-06T07:37:34.296Z,13.18
2023-04-06T07:40:01.784Z,12.90
2023-04-06T07:42:30.813Z,15.63
2023-04-06T07:44:58.706Z,16.13
2023-04-06T07:47:26.372Z,16.00
2023-04-06T07:49:57.171Z,12.77
2023-04-06T07:52:25.058Z,14.33
2023-04-06T07:54:52.417Z,16.33
2023-04-06T07:57:19.947Z,19.83
2023-04-06T07:59:47.648Z,14.57
2023-04-06T08:02:15.150Z,13.00
2023-04-06T08:04:44.633Z,16.40
2023-04-06T08:07:13.672Z,11.27
2023-04-06T08:09:41.105Z,12.03
2023-04-06T08:12:08.948Z,10.83
2023-04-06T08:14:36.522Z,10.03
2023-04-06T08:17:05.917Z,9.13
2023-04-06T08:19:34.300Z,11.33
2023-04-06T08:22:01.685Z,14.30
2023-04-06T08:24:29.124Z,11.73
2023-04-06T08:26:56.931Z,11.57
2023-04-06T08:29:24.406Z,12.27
2023-04-06T08:31:51.683Z,11.77
2023-04-06T08:34:19.502Z,12.73
2023-04-06T08:36:47.982Z,10.43
2023-04-06T08:39:15.554Z,9.55
2023-04-06T08:41:45.167Z,16.87
2023-04-06T08:44:13.162Z,11.48
2023-04-06T08:46:41.779Z,10.77
2023-04-06T08:49:09.676Z,12.47
2023-04-06T08:51:39.290Z,16.30
2023-04-06T08:54:07.044Z,17.93
2023-04-06T08:56:39.205Z,12.95
2023-04-06T08:59:07.755Z,14.67
2023-04-06T09:01:42.426Z,10.45
2023-04-06T09:04:12.793Z,13.83
2023-04-06T09:06:41.956Z,12.87
2023-04-06T09:09:09.733Z,12.00
2023-04-06T09:12:07.067Z,15.00
2023-04-06T09:14:39.164Z,9.87
2023-04-06T09:17:07.454Z,11.60
2023-04-06T09:19:35.158Z,9.55
2023-04-06T09:22:08.462Z,7.27
2023-04-06T09:24:50.887Z,8.27
2023-04-06T09:27:18.879Z,7.90
2023-04-06T09:29:46.598Z,10.93
2023-04-06T09:32:17.999Z,7.70
2023-04-06T09:34:50.795Z,9.40
2023-04-06T09:37:20.255Z,10.03
2023-04-06T09:39:47.903Z,8.40
2023-04-06T09:42:26.779Z,10.60
2023-04-06T09:47:29.597Z,8.63
2023-04-06T09:50:00.386Z,11.50
2023-04-06T09:52:32.886Z,13.27
2023-04-06T09:55:06.244Z,18.27
2023-04-06T09:58:06.751Z,11.10
2023-04-06T10:00:44.836Z,11.17
2023-04-06T10:03:38.772Z,11.60
2023-04-06T10:06:12.466Z,30.27
2023-04-06T10:08:42.612Z,12.50
2023-04-06T10:11:13.728Z,12.47
2023-04-06T10:13:41.791Z,15.47
2023-04-06T10:16:09.525Z,13.20
2023-04-06T10:18:38.710Z,13.23
2023-04-06T10:21:22.012Z,9.70
2023-04-06T10:23:52.175Z,9.83
2023-04-06T10:26:23.663Z,12.03
2023-04-06T10:28:51.955Z,10.83
2023-04-06T10:31:27.676Z,11.07
2023-04-06T10:34:01.913Z,35.67
2023-04-06T10:36:33.669Z,11.83
2023-04-06T10:39:06.253Z,10.57
2023-04-06T10:41:43.240Z,9.40
2023-04-06T10:44:21.632Z,12.43
2023-04-06T10:47:02.903Z,21.70
2023-04-06T10:49:30.256Z,11.10
2023-04-06T10:51:58.439Z,11.93
2023-04-06T10:54:28.187Z,10.27
2023-04-06T10:56:57.263Z,21.43
2023-04-06T10:59:26.597Z,34.23
2023-04-06T11:01:56.196Z,10.93
2023-04-06T11:04:24.756Z,23.57
2023-04-06T11:06:52.710Z,15.32
2023-04-06T11:09:32.679Z,15.13
2023-04-06T11:12:00.484Z,10.67
2023-04-06T11:14:28.036Z,11.87
2023-04-06T11:16:55.448Z,12.23
2023-04-06T11:19:23.241Z,11.07
2023-04-06T11:21:50.874Z,9.97
2023-04-06T11:24:20.573Z,9.87
2023-04-06T11:26:52.232Z,13.03
2023-04-06T11:29:24.637Z,16.63
2023-04-06T11:31:53.402Z,15.77
2023-04-06T11:34:22.912Z,14.85
2023-04-06T11:36:58.524Z,20.77
2023-04-06T11:39:28.809Z,15.47
2023-04-06T11:42:08.508Z,12.73
2023-04-06T11:44:43.820Z,13.07
2023-04-06T11:47:12.092Z,16.47
2023-04-06T11:49:42.112Z,23.92
2023-04-06T11:52:24.342Z,14.40
2023-04-06T11:54:54.597Z,14.27
2023-04-06T11:57:26.688Z,15.07
2023-04-06T11:59:54.771Z,13.13
2023-04-06T12:02:22.327Z,13.90
2023-04-06T12:04:50.277Z,23.70
2023-04-06T12:07:17.819Z,15.13
2023-04-06T12:09:45.559Z,14.33
2023-04-06T12:12:13.320Z,14.07
2023-04-06T12:14:41.087Z,14.80
2023-04-06T12:17:08.628Z,12.43
2023-04-06T12:19:36.288Z,14.00
2023-04-06T12:22:03.680Z,12.60
2023-04-06T12:24:31.208Z,12.37
2023-04-06T12:27:08.680Z,18.17
2023-04-06T12:29:38.006Z,22.33
2023-04-06T12:32:06.672Z,20.07
2023-04-06T12:34:34.085Z,16.62
2023-04-06T12:37:01.689Z,12.70
2023-04-06T12:39:29.541Z,14.00
2023-04-06T12:41:58.396Z,14.87
2023-04-06T12:44:27.005Z,20.77
2023-04-06T12:49:23.086Z,11.57
2023-04-06T12:51:51.368Z,15.43
2023-04-06T12:54:19.044Z,14.70
2023-04-06T12:56:46.694Z,17.83
2023-04-06T12:59:14.163Z,13.63
2023-04-06T13:01:41.886Z,16.07
2023-04-06T13:04:09.173Z,14.63
2023-04-06T13:06:36.567Z,12.90
2023-04-06T13:09:05.494Z,12.03
2023-04-06T13:11:33.129Z,15.90
2023-04-06T13:14:00.536Z,13.17
2023-04-06T13:16:28.666Z,13.63
2023-04-06T13:18:56.335Z,23.00
2023-04-06T13:21:23.663Z,14.03
2023-04-06T13:23:52.543Z,15.80
2023-04-06T13:26:19.880Z,13.25
2023-04-06T13:28:47.382Z,14.17
2023-04-06T13:31:15.026Z,11.93
2023-04-06T13:33:42.457Z,13.83
2023-04-06T13:36:09.913Z,14.93
2023-04-06T13:38:40.075Z,17.13
2023-04-06T13:41:07.587Z,15.90
2023-04-06T13:43:34.924Z,15.47
2023-04-06T13:46:02.715Z,15.80
2023-04-06T13:48:30.117Z,17.63
2023-04-06T13:50:57.786Z,17.40
2023-04-06T13:53:25.498Z,15.73
2023-04-06T13:55:56.768Z,13.93
2023-04-06T13:58:24.710Z,14.97
2023-04-06T14:00:52.563Z,14.33
2023-04-06T14:03:21.532Z,13.10
2023-04-06T14:05:49.003Z,13.18
2023-04-06T14:08:16.580Z,17.70
2023-04-06T14:10:44.337Z,24.47
2023-04-06T14:13:11.708Z,24.07
2023-04-06T14:15:39.235Z,15.10
2023-04-06T14:18:07.188Z,22.10
2023-04-06T14:20:34.723Z,12.50
2023-04-06T14:23:03.160Z,14.83
2023-04-06T14:25:35.955Z,16.10
2023-04-06T14:28:03.614Z,15.10
2023-04-06T14:30:32.266Z,16.90
2023-04-06T14:32:59.724Z,13.75
2023-04-06T14:35:29.430Z,19.73
2023-04-06T14:37:59.310Z,14.07
2023-04-06T14:40:26.756Z,19.63
2023-04-06T14:42:54.234Z,10.70
2023-04-06T14:45:22.902Z,21.00
2023-04-06T14:47:50.526Z,26.55
2023-04-06T14:50:17.925Z,21.03
2023-04-06T14:52:47.663Z,17.20
2023-04-06T14:55:15.298Z,16.80
2023-04-06T14:57:42.665Z,22.50
2023-04-06T15:00:11.346Z,16.63
2023-04-06T15:02:39.569Z,16.15
2023-04-06T15:05:07.503Z,31.73
2023-04-06T15:07:35.280Z,24.70
2023-04-06T15:10:02.904Z,14.40
2023-04-06T15:12:31.094Z,11.13
2023-04-06T15:14:58.843Z,10.68
2023-04-06T15:17:27.661Z,12.87
2023-04-06T15:19:55.565Z,15.52
2023-04-06T15:22:23.298Z,17.83
2023-04-06T15:24:50.746Z,18.87
2023-04-06T15:27:18.323Z,24.67
2023-04-06T15:29:45.953Z,31.83
2023-04-06T15:32:13.619Z,20.57
2023-04-06T15:34:41.142Z,15.40
2023-04-06T15:37:09.478Z,19.23
2023-04-06T15:39:38.025Z,20.60
2023-04-06T15:42:05.527Z,17.80
2023-04-06T15:44:33.338Z,19.90
2023-04-06T15:47:00.808Z,15.70
2023-04-06T15:49:28.281Z,32.77
2023-04-06T15:51:56.128Z,18.67
2023-04-06T15:54:23.452Z,15.73
2023-04-06T15:56:51.154Z,26.43
2023-04-06T15:59:20.053Z,19.20
2023-04-06T16:01:47.836Z,18.87
2023-04-06T16:04:15.783Z,32.43
2023-04-06T16:06:43.159Z,20.83
2023-04-06T16:09:10.482Z,30.83
2023-04-06T16:11:38.308Z,36.07
2023-04-06T16:14:05.775Z,31.03
2023-04-06T16:16:33.238Z,21.30
2023-04-06T16:19:01.148Z,34.53
2023-04-06T16:21:29.025Z,32.33
2023-04-06T16:23:59.205Z,24.95
2023-04-06T16:26:27.740Z,25.10
2023-04-06T16:28:55.315Z,22.50
2023-04-06T16:31:24.583Z,24.57
2023-04-06T16:33:54.531Z,26.73
2023-04-06T16:36:29.205Z,33.77
2023-04-06T16:38:58.043Z,27.57
2023-04-06T16:41:27.700Z,29.73
2023-04-06T16:43:57.919Z,28.90
2023-04-06T16:46:32.524Z,25.63
2023-04-06T16:49:00.684Z,38.80
2023-04-06T16:51:28.810Z,25.00
2023-04-06T16:53:56.198Z,38.53
2023-04-06T16:56:23.774Z,23.37
2023-04-06T16:58:51.844Z,26.77
2023-04-06T17:01:24.147Z,18.87
2023-04-06T17:03:54.118Z,18.77
2023-04-06T17:06:21.998Z,38.40
2023-04-06T17:08:49.993Z,29.80
2023-04-06T17:11:21.767Z,30.85
2023-04-06T17:13:51.002Z,24.60
2023-04-06T17:16:19.711Z,27.23
2023-04-06T17:18:47.134Z,24.97
2023-04-06T17:21:14.750Z,28.07
2023-04-06T17:23:42.767Z,33.33
2023-04-06T17:26:10.122Z,24.47
2023-04-06T17:28:37.474Z,42.87
2023-04-06T17:31:13.111Z,41.07
2023-04-06T17:33:41.665Z,36.80
2023-04-06T17:36:11.125Z,24.50
2023-04-06T17:38:43.557Z,29.05
2023-04-06T17:41:13.569Z,25.83
2023-04-06T17:43:41.065Z,28.00
2023-04-06T17:46:08.664Z,34.10
2023-04-06T17:48:36.565Z,28.40
2023-04-06T17:51:04.216Z,23.20
2023-04-06T17:53:34.568Z,22.77
2023-04-06T17:56:04.174Z,19.60
2023-04-06T17:58:31.770Z,24.35
2023-04-06T18:00:59.084Z,29.90
2023-04-06T18:03:27.447Z,30.03
2023-04-06T18:05:55.093Z,22.70
2023-04-06T18:08:22.678Z,28.73
2023-04-06T18:10:50.428Z,27.70
2023-04-06T18:13:17.826Z,46.07
2023-04-06T18:15:45.858Z,39.03
2023-04-06T18:18:13.652Z,30.77
2023-04-06T18:20:41.847Z,23.20
2023-04-06T18:23:09.236Z,29.70
2023-04-06T18:25:41.100Z,32.30
2023-04-06T18:28:09.596Z,32.83
2023-04-06T18:30:37.422Z,26.75
2023-04-06T18:33:06.734Z,28.20
2023-04-06T18:35:34.020Z,32.80
2023-04-06T18:38:01.688Z,34.97
2023-04-06T18:40:34.248Z,22.10
2023-04-06T18:43:03.297Z,19.03
2023-04-06T18:45:36.378Z,39.58
2023-04-06T18:48:04.578Z,35.80
2023-04-06T18:50:31.896Z,30.80
2023-04-06T18:52:59.320Z,82.57
2023-04-06T18:55:27.099Z,47.60
2023-04-06T18:57:54.554Z,68.17
2023-04-06T19:00:22.027Z,28.00
2023-04-06T19:02:49.983Z,27.57
2023-04-06T19:05:17.642Z,28.70
2023-04-06T19:07:52.524Z,27.87
2023-04-06T19:10:20.586Z,20.07
2023-04-06T19:12:48.985Z,17.80
2023-04-06T19:15:16.479Z,17.40
2023-04-06T19:17:44.244Z,17.03
2023-04-06T19:20:11.978Z,21.83
2023-04-06T19:22:39.362Z,26.37
2023-04-06T19:25:08.102Z,26.57
2023-04-06T19:27:35.557Z,23.02
2023-04-06T19:30:07.106Z,29.10
2023-04-06T19:32:34.903Z,37.23
2023-04-06T19:35:06.469Z,28.47
2023-04-06T19:37:34.651Z,30.37
2023-04-06T19:40:07.699Z,18.75
2023-04-06T19:42:35.216Z,28.63
2023-04-06T19:45:04.062Z,28.40
2023-04-06T19:47:31.681Z,24.67
2023-04-06T19:49:59.103Z,23.80
2023-04-06T19:52:27.454Z,17.47
2023-04-06T19:54:55.686Z,18.87
2023-04-06T19:57:23.221Z,15.77
2023-04-06T19:59:51.166Z,20.43
2023-04-06T20:02:19.000Z,17.70
2023-04-06T20:04:46.991Z,17.87
2023-04-06T20:07:14.410Z,20.97
2023-04-06T20:09:41.753Z,17.07
2023-04-06T20:12:09.493Z,21.13
2023-04-06T20:14:36.871Z,13.30
2023-04-06T20:17:04.601Z,14.40
2023-04-06T20:19:32.416Z,19.23
2023-04-06T20:22:03.304Z,14.97
2023-04-06T20:24:31.590Z,13.07
2023-04-06T20:26:59.677Z,17.23
2023-04-06T20:29:27.954Z,22.17
2023-04-06T20:31:55.820Z,23.57
2023-04-06T20:34:26.209Z,29.33
2023-04-06T20:36:53.939Z,26.07
2023-04-06T20:39:21.928Z,23.37
2023-04-06T20:41:50.968Z,25.37
2023-04-06T20:44:19.164Z,16.73
2023-04-06T20:46:48.575Z,20.70
2023-04-06T20:49:17.166Z,20.53
2023-04-06T20:51:45.841Z,16.23
2023-04-06T20:54:13.224Z,22.52
2023-04-06T20:56:41.044Z,26.17
2023-04-06T20:59:08.377Z,18.53
2023-04-06T21:01:35.833Z,26.60
2023-04-06T21:04:04.343Z,26.50
2023-04-06T21:06:32.629Z,31.57
2023-04-06T21:09:01.511Z,19.73
2023-04-06T21:11:29.817Z,23.45
2023-04-06T21:13:57.205Z,34.10
2023-04-06T21:16:24.576Z,21.27
2023-04-06T21:18:52.304Z,23.67
2023-04-06T21:21:20.087Z,31.47
2023-04-06T21:23:47.431Z,18.97
2023-04-06T21:26:15.085Z,19.33
2023-04-06T21:28:42.533Z,15.97
2023-04-06T21:31:10.009Z,22.37
2023-04-06T21:33:37.756Z,22.97
2023-04-06T21:36:06.889Z,16.90
2023-04-06T21:38:37.771Z,22.27
2023-04-06T21:41:07.377Z,22.53
2023-04-06T21:46:02.328Z,16.60
2023-04-06T21:48:30.308Z,19.03
2023-04-06T21:50:57.561Z,16.47
2023-04-06T21:53:24.858Z,23.17
2023-04-06T21:55:52.810Z,20.33
2023-04-06T21:58:20.171Z,22.37
2023-04-06T22:00:47.557Z,15.37
2023-04-06T22:17:59.383Z,17.77
2023-04-06T22:20:28.032Z,27.37
2023-04-06T22:22:55.526Z,26.33
2023-04-06T22:25:23.359Z,22.83
2023-04-06T22:27:50.986Z,23.27
2023-04-06T22:30:18.326Z,18.67
2023-04-06T22:32:45.823Z,15.70
2023-04-06T22:35:13.635Z,21.17
2023-04-06T22:37:44.428Z,15.70
2023-04-06T22:40:12.233Z,15.67
2023-04-06T22:42:40.059Z,16.47
2023-04-06T22:45:07.686Z,18.00
2023-04-06T22:47:35.055Z,16.40
2023-04-06T22:50:02.913Z,15.77
2023-04-06T22:52:30.207Z,22.87
2023-04-06T22:54:57.516Z,19.27
2023-04-06T22:57:25.475Z,19.77
2023-04-06T22:59:52.943Z,21.43
2023-04-06T23:02:20.608Z,23.07
2023-04-06T23:04:48.382Z,24.70
2023-04-06T23:07:15.655Z,21.03
2023-04-06T23:09:44.380Z,17.73
2023-04-06T23:12:12.268Z,21.17
2023-04-06T23:14:39.520Z,23.03
2023-04-06T23:17:07.027Z,23.57
2023-04-06T23:19:34.839Z,17.87
2023-04-06T23:22:02.529Z,22.50
2023-04-06T23:24:29.804Z,19.40
2023-04-06T23:26:57.732Z,16.97
2023-04-06T23:29:25.209Z,17.70
2023-04-06T23:31:52.584Z,20.53
2023-04-06T23:34:20.277Z,26.20
2023-04-06T23:36:47.653Z,19.67
2023-04-06T23:39:14.994Z,27.33
2023-04-06T23:41:43.291Z,23.33
2023-04-06T23:44:10.762Z,15.53
2023-04-06T23:46:38.171Z,17.40
2023-04-06T23:49:05.886Z,25.57
2023-04-06T23:51:33.190Z,27.80
2023-04-06T23:54:00.514Z,30.30
2023-04-06T23:56:28.164Z,22.10
2023-04-06T23:58:55.566Z,22.57
